Latest Weather Observations for Girilambone

IDN60801

Issued at 10:42 pm EDT Monday 19 November 2018 (issued every 10 minutes, with the page automatically refreshed every 10 minutes)

About weather observations | Map of weather stations | Latest weather observations for NSW | Other Formats
Station Details ID: 051164 Name: GIRILAMBONE (OKEH) AWS Lat: -31.08 Lon: 146.93 Height: 178.0 m
Data from the previous 72 hours. | See also: Recent months at Girilambone
Date/Time
EDT
Temp
°C
App
Temp
°C
Dew
Point
°C
Rel
Hum
%
Delta-T
°C
Wind Press
QNH
hPa
Press
MSL
hPa
Rain since
9am
mm
Dir  Spd
km/h
Gust
km/h
Spd
kts
Gust
kts
19/10:30pm 26.3 - 13.4 45 7.6 - - - - - - - 0.0
19/10:00pm 26.5 - 13.6 45 7.7 - - - - - - - 0.0
19/09:30pm 26.9 - 13.3 43 8.1 - - - - - - - 0.0
19/09:00pm 27.4 - 13.4 42 8.3 - - - - - - - 0.0
19/08:30pm 27.8 - 13.7 42 8.4 - - - - - - - 0.0
19/08:00pm 28.5 - 12.8 38 9.3 - - - - - - - 0.0
19/07:30pm 28.7 - 13.0 38 9.3 - - - - - - - 0.0
19/07:00pm 29.1 - 12.9 37 9.6 - - - - - - - 0.0
19/06:30pm 29.7 - 12.6 35 10.1 - - - - - - - 0.0
19/06:00pm 30.1 - 12.5 34 10.4 - - - - - - - 0.0
19/05:30pm 29.7 - 12.2 34 10.3 - - - - - - - 0.0
19/05:00pm 30.0 - 12.0 33 10.6 - - - - - - - 0.0
19/04:30pm 30.7 - 13.0 33 10.6 - - - - - - - 0.0
19/04:00pm 29.7 - 13.0 35 10.0 - - - - - - - 0.0
19/03:30pm 29.3 - 12.7 36 9.8 - - - - - - - 0.0
19/03:00pm 29.1 - 13.3 37 9.4 - - - - - - - 0.0
19/02:30pm 28.5 - 13.2 39 9.1 - - - - - - - 0.0
19/02:00pm 27.9 - 13.1 40 8.8 - - - - - - - 0.0
19/01:30pm 27.4 - 13.0 41 8.5 - - - - - - - 0.0
19/01:00pm 27.8 - 13.3 40 8.6 - - - - - - - 0.0
19/12:30pm 26.4 - 13.5 45 7.7 - - - - - - - 0.0
19/12:00pm 25.4 - 13.3 47 7.1 - - - - - - - 0.0
19/11:30am 24.9 - 13.5 49 6.7 - - - - - - - 0.0
19/11:00am 23.4 - 13.6 54 5.7 - - - - - - - 0.0
19/10:30am 22.5 - 13.3 56 5.3 - - - - - - - 0.0
19/10:00am 22.0 - 13.1 57 5.1 - - - - - - - 0.0
19/09:30am 22.0 - 13.1 57 5.1 - - - - - - - 0.0
19/09:00am 21.5 - 13.4 60 4.7 - - - - - - - 0.0
19/08:30am 20.7 - 13.4 63 4.2 - - - - - - - 0.0
19/08:00am 20.1 - 13.8 67 3.7 - - - - - - - 0.0
19/07:30am 19.6 - 14.0 70 3.3 - - - - - - - 0.0
19/07:00am 19.4 - 14.2 72 3.0 - - - - - - - 0.0
19/06:30am 19.4 - 14.2 72 3.0 - - - - - - - 0.0
19/06:00am 19.2 - 14.5 74 2.7 - - - - - - - 0.0
19/05:30am 19.1 - 14.4 74 2.7 - - - - - - - 0.0
19/05:00am 19.5 - 14.3 72 3.0 - - - - - - - 0.0
19/04:30am 20.2 - 13.6 66 3.8 - - - - - - - 0.0
19/04:00am 21.1 - 11.4 54 5.4 - - - - - - - 0.0
19/03:30am 21.3 - 11.1 52 5.7 - - - - - - - 0.0
19/03:00am 21.3 - 10.5 50 5.9 - - - - - - - 0.0
19/02:30am 21.5 - 10.0 48 6.3 - - - - - - - 0.0
19/02:00am 22.0 - 9.5 45 6.8 - - - - - - - 0.0
19/01:30am 22.4 - 9.2 43 7.1 - - - - - - - 0.0
19/01:00am 22.9 - 9.0 41 7.5 - - - - - - - 0.0
19/12:30am 23.2 - 8.5 39 7.9 - - - - - - - 0.0
19/12:00am 23.8 - 8.2 37 8.3 - - - - - - - 0.0
 
Date/Time
EDT
Temp
°C
App
Temp
°C
Dew
Point
°C
Rel
Hum
%
Delta-T
°C
Wind Press
QNH
hPa
Press
MSL
hPa
Rain since
9am
mm
Dir  Spd
km/h
Gust
km/h
Spd
kts
Gust
kts
18/11:30pm 24.4 - 8.4 36 8.6 - - - - - - - 0.0
18/11:00pm 25.1 - 8.1 34 9.1 - - - - - - - 0.0
18/10:30pm 26.4 - 8.4 32 9.8 - - - - - - - 0.0
18/10:00pm 27.0 - 8.4 31 10.2 - - - - - - - 0.0
18/09:30pm 27.4 - 8.3 30 10.4 - - - - - - - 0.0
18/09:00pm 27.4 - 8.3 30 10.4 - - - - - - - 0.0
18/08:30pm 28.2 - 8.0 28 11.0 - - - - - - - 0.0
18/08:00pm 29.0 - 8.1 27 11.5 - - - - - - - 0.0
18/07:30pm 29.8 - 7.7 25 12.1 - - - - - - - 0.0
18/07:00pm 30.4 - 8.7 26 12.1 - - - - - - - 0.0
18/06:30pm 30.5 - 8.3 25 12.3 - - - - - - - 0.0
18/06:00pm 30.5 - 8.3 25 12.3 - - - - - - - 0.0
18/05:30pm 30.8 - 8.5 25 12.4 - - - - - - - 0.0
18/05:00pm 30.7 - 9.0 26 12.2 - - - - - - - 0.0
18/04:30pm 30.7 - 8.4 25 12.4 - - - - - - - 0.0
18/04:00pm 30.4 - 8.2 25 12.3 - - - - - - - 0.0
18/03:30pm 30.4 - 9.8 28 11.7 - - - - - - - 0.0
18/03:00pm 29.8 - 10.4 30 11.1 - - - - - - - 0.0
18/02:30pm 29.8 - 10.4 30 11.1 - - - - - - - 0.0
18/02:00pm 29.9 - 10.9 31 11.0 - - - - - - - 0.0
18/01:30pm 29.2 - 10.8 32 10.6 - - - - - - - 0.0
18/01:00pm 28.0 - 10.7 34 9.9 - - - - - - - 0.0
18/12:30pm 27.8 - 11.4 36 9.5 - - - - - - - 0.0
18/12:00pm 26.7 - 11.2 38 8.9 - - - - - - - 0.0
18/11:30am 25.6 - 11.0 40 8.3 - - - - - - - 0.0
18/11:00am 25.0 - 11.2 42 7.8 - - - - - - - 0.0
18/10:30am 24.6 - 10.5 41 7.9 - - - - - - - 0.0
18/10:00am 24.1 - 10.7 43 7.5 - - - - - - - 0.0
18/09:30am 22.8 - 10.3 45 6.9 - - - - - - - 0.0
18/09:00am 22.3 - 10.5 47 6.5 - - - - - - - 0.0
18/08:30am 21.0 - 10.5 51 5.8 - - - - - - - 0.0
18/08:00am 20.1 - 10.5 54 5.2 - - - - - - - 0.0
18/07:30am 19.2 - 10.5 57 4.7 - - - - - - - 0.0
18/07:00am 18.5 - 10.3 59 4.4 - - - - - - - 0.0
18/06:30am 18.1 - 10.2 60 4.2 - - - - - - - 0.0
18/06:00am 18.0 - 10.4 61 4.1 - - - - - - - 0.0
18/05:30am 18.4 - 10.3 59 4.4 - - - - - - - 0.0
18/05:00am 18.7 - 10.3 58 4.5 - - - - - - - 0.0
18/04:30am 19.1 - 10.1 56 4.9 - - - - - - - 0.0
18/04:00am 19.6 - 10.3 55 5.0 - - - - - - - 0.0
18/03:30am 19.9 - 10.3 54 5.2 - - - - - - - 0.0
18/03:00am 20.5 - 10.3 52 5.6 - - - - - - - 0.0
18/02:30am 20.9 - 10.4 51 5.8 - - - - - - - 0.0
18/02:00am 21.5 - 9.1 45 6.7 - - - - - - - 0.0
18/01:30am 22.0 - 4.1 31 8.8 - - - - - - - 0.0
18/01:00am 22.7 - -0.7 21 10.5 - - - - - - - 0.0
18/12:30am 23.7 - -2.8 17 11.5 - - - - - - - 0.0
18/12:00am 24.0 - -2.5 17 11.6 - - - - - - - 0.0
 
Date/Time
EDT
Temp
°C
App
Temp
°C
Dew
Point
°C
Rel
Hum
%
Delta-T
°C
Wind Press
QNH
hPa
Press
MSL
hPa
Rain since
9am
mm
Dir  Spd
km/h
Gust
km/h
Spd
kts
Gust
kts
17/11:30pm 23.9 - -2.6 17 11.6 - - - - - - - 0.0
17/11:00pm 23.9 - -2.6 17 11.6 - - - - - - - 0.0
17/10:30pm 24.8 - -3.6 15 12.3 - - - - - - - 0.0
17/10:00pm 24.9 - -3.5 15 12.3 - - - - - - - 0.0
17/09:30pm 26.1 - -3.5 14 13.0 - - - - - - - 0.0
17/09:00pm 26.6 - -3.1 14 13.2 - - - - - - - 0.0
17/08:30pm 26.9 - -3.8 13 13.5 - - - - - - - 0.0
17/08:00pm 27.9 - -5.2 11 14.3 - - - - - - - 0.0
17/07:30pm 29.2 - -5.5 10 15.1 - - - - - - - 0.0
17/07:00pm 30.0 - -4.9 10 15.4 - - - - - - - 0.0
17/06:30pm 30.5 - -4.5 10 15.6 - - - - - - - 0.0
17/06:00pm 30.7 - -4.4 10 15.7 - - - - - - - 0.0
17/05:30pm 31.5 - -3.8 10 16.1 - - - - - - - 0.0
17/05:00pm 30.7 - -4.4 10 15.7 - - - - - - - 0.0
17/04:30pm 31.1 - -4.1 10 15.9 - - - - - - - 0.0
17/04:00pm 31.2 - -4.0 10 16.0 - - - - - - - 0.0
17/03:30pm 30.8 - -3.0 11 15.5 - - - - - - - 0.0
17/03:00pm 29.9 - -2.6 12 14.9 - - - - - - - 0.0
17/02:30pm 31.1 - -0.5 13 15.2 - - - - - - - 0.0
17/02:00pm 29.6 - -1.7 13 14.6 - - - - - - - 0.0
17/01:30pm 30.4 - -1.1 13 14.9 - - - - - - - 0.0
17/01:00pm 30.0 - -0.4 14 14.5 - - - - - - - 0.0
17/12:30pm 28.6 - -1.5 14 14.0 - - - - - - - 0.0
17/12:00pm 28.1 - -1.9 14 13.8 - - - - - - - 0.0
17/11:30am 27.9 - -0.2 16 13.3 - - - - - - - 0.0
17/11:00am 27.1 - -0.9 16 13.0 - - - - - - - 0.0
17/10:30am 26.4 - 3.6 23 11.4 - - - - - - - 0.0
17/10:00am 25.3 - 4.4 26 10.5 - - - - - - - 0.0
17/09:30am 24.6 - 6.4 31 9.5 - - - - - - - 0.0
17/09:00am 22.8 - 7.0 36 8.2 - - - - - - - 0.0
17/08:30am 21.2 - 8.8 45 6.6 - - - - - - - 0.0
17/08:00am 19.8 - 8.2 47 6.1 - - - - - - - 0.0
17/07:30am 19.2 - 4.6 38 7.1 - - - - - - - 0.0
17/07:00am 18.6 - 0.7 30 8.0 - - - - - - - 0.0
17/06:30am 18.1 - -1.7 26 8.4 - - - - - - - 0.0
17/06:00am 18.2 - -2.7 24 8.7 - - - - - - - 0.0
17/05:30am 19.2 - -3.0 22 9.2 - - - - - - - 0.0
17/05:00am 19.5 - -3.4 21 9.5 - - - - - - - 0.0
17/04:30am 20.0 - -3.6 20 9.8 - - - - - - - 0.0
17/04:00am 20.4 - -4.0 19 10.1 - - - - - - - 0.0
17/03:30am 20.8 - -4.4 18 10.4 - - - - - - - 0.0
17/03:00am 21.2 - -4.8 17 10.6 - - - - - - - 0.0
17/02:30am 21.6 - -4.5 17 10.8 - - - - - - - 0.0
17/02:00am 21.9 - -3.5 18 10.7 - - - - - - - 0.0
17/01:30am 22.3 - -1.7 20 10.6 - - - - - - - 0.0
17/01:00am 22.7 - -0.1 22 10.4 - - - - - - - 0.0
17/12:30am 23.1 - 1.5 24 10.2 - - - - - - - 0.0
17/12:00am 24.0 - 1.6 23 10.6 - - - - - - - 0.0
 
Date/Time
EDT
Temp
°C
App
Temp
°C
Dew
Point
°C
Rel
Hum
%
Delta-T
°C
Wind Press
QNH
hPa
Press
MSL
hPa
Rain since
9am
mm
Dir  Spd
km/h
Gust
km/h
Spd
kts
Gust
kts
16/11:30pm 24.2 - 1.8 23 10.7 - - - - - - - 0.0
16/11:00pm 24.5 - 1.4 22 11.0 - - - - - - - 0.0

Other Formats:

Comma delimited format used in spreadsheet applications
http://www.bom.gov.au/fwo/IDN60801/IDN60801.94794.axf

JavaScript Object Notation format (JSON) in row-major order
http://www.bom.gov.au/fwo/IDN60801/IDN60801.94794.json